createdAt,value
2019-02-04T00:04:23.415Z,8.63
2019-02-04T00:07:11.425Z,9.20
2019-02-04T00:09:59.482Z,7.73
2019-02-04T00:12:47.557Z,7.37
2019-02-04T00:15:30.609Z,9.47
2019-02-04T00:18:11.879Z,11.90
2019-02-04T00:20:52.385Z,11.53
2019-02-04T00:23:33.952Z,26.37
2019-02-04T00:26:14.529Z,16.70
2019-02-04T00:28:55.403Z,12.70
2019-02-04T00:31:36.269Z,13.23
2019-02-04T00:34:16.915Z,7.97
2019-02-04T00:36:57.413Z,11.93
2019-02-04T00:39:37.987Z,9.93
2019-02-04T00:42:18.868Z,12.17
2019-02-04T00:44:59.494Z,10.87
2019-02-04T00:47:40.100Z,11.03
2019-02-04T00:50:20.730Z,7.93
2019-02-04T00:53:01.823Z,8.03
2019-02-04T00:55:42.303Z,9.37
2019-02-04T00:58:22.813Z,11.67
2019-02-04T01:01:03.953Z,9.23
2019-02-04T01:03:45.114Z,11.63
2019-02-04T01:06:25.528Z,11.50
2019-02-04T01:09:05.936Z,10.80
2019-02-04T01:11:46.982Z,10.93
2019-02-04T01:14:27.654Z,9.23
2019-02-04T01:17:08.115Z,9.63
2019-02-04T01:19:48.886Z,10.60
2019-02-04T01:22:30.131Z,7.30
2019-02-04T01:25:10.735Z,5.80
2019-02-04T01:27:51.914Z,8.60
2019-02-04T01:30:32.544Z,7.67
2019-02-04T01:33:13.507Z,14.07
2019-02-04T01:35:54.315Z,13.47
2019-02-04T01:38:35.340Z,16.40
2019-02-04T01:41:16.028Z,15.30
2019-02-04T01:43:57.005Z,13.07
2019-02-04T01:46:37.405Z,17.50
2019-02-04T01:49:18.270Z,12.33
2019-02-04T01:51:58.819Z,12.00
2019-02-04T01:54:39.471Z,14.30
2019-02-04T01:57:20.072Z,10.63
2019-02-04T02:00:00.472Z,13.27
2019-02-04T02:02:41.062Z,10.30
2019-02-04T02:05:21.365Z,9.60
2019-02-04T02:08:01.891Z,9.73
2019-02-04T02:10:42.275Z,11.13
2019-02-04T02:13:22.774Z,8.57
2019-02-04T02:16:03.447Z,8.77
2019-02-04T02:18:43.753Z,10.17
2019-02-04T02:21:25.239Z,9.33
2019-02-04T02:24:06.047Z,8.37
2019-02-04T02:26:46.606Z,11.83
2019-02-04T02:29:27.243Z,8.10
2019-02-04T02:32:07.868Z,6.50
2019-02-04T02:34:48.661Z,8.40
2019-02-04T02:37:29.311Z,9.17
2019-02-04T02:40:10.043Z,8.23
2019-02-04T02:42:50.848Z,12.53
2019-02-04T02:45:32.408Z,11.03
2019-02-04T02:48:13.201Z,7.63
2019-02-04T02:50:53.931Z,7.40
2019-02-04T02:53:34.490Z,5.80
2019-02-04T02:56:15.167Z,5.83
2019-02-04T02:58:55.983Z,6.77
2019-02-04T03:01:36.714Z,6.70
2019-02-04T03:04:17.325Z,8.27
2019-02-04T03:06:58.006Z,6.23
2019-02-04T03:09:38.631Z,6.90
2019-02-04T03:12:19.363Z,9.97
2019-02-04T03:15:00.301Z,9.87
2019-02-04T03:17:51.442Z,5.93
2019-02-04T03:20:23.453Z,9.17
2019-02-04T03:23:04.443Z,6.57
2019-02-04T03:25:44.851Z,8.70
2019-02-04T03:28:25.290Z,9.40
2019-02-04T03:31:05.975Z,8.58
2019-02-04T03:33:46.779Z,5.37
2019-02-04T03:36:27.722Z,5.33
2019-02-04T03:39:08.640Z,9.67
2019-02-04T03:41:49.079Z,5.62
2019-02-04T03:44:29.568Z,6.35
2019-02-04T03:47:10.380Z,6.20
2019-02-04T03:49:51.069Z,5.40
2019-02-04T03:52:32.046Z,4.70
2019-02-04T03:55:13.134Z,6.78
2019-02-04T03:57:53.377Z,9.48
2019-02-04T04:00:33.979Z,9.70
2019-02-04T04:03:14.944Z,8.40
2019-02-04T04:05:55.230Z,4.30
2019-02-04T04:08:36.227Z,3.93
2019-02-04T04:11:16.730Z,6.12
2019-02-04T04:13:57.349Z,7.73
2019-02-04T04:16:38.090Z,10.63
2019-02-04T04:19:19.518Z,9.77
2019-02-04T04:22:00.091Z,4.60
2019-02-04T04:24:40.667Z,4.47
2019-02-04T04:27:22.532Z,6.25
2019-02-04T04:30:02.843Z,11.15
2019-02-04T04:32:43.692Z,8.55
2019-02-04T04:35:25.407Z,6.33
2019-02-04T04:38:05.851Z,7.87
2019-02-04T04:40:46.482Z,12.88
2019-02-04T04:43:27.190Z,19.52
2019-02-04T04:46:08.134Z,16.95
2019-02-04T04:48:48.746Z,14.43
2019-02-04T04:51:29.588Z,11.55
2019-02-04T04:54:10.375Z,14.23
2019-02-04T04:56:51.001Z,10.35
2019-02-04T04:59:31.655Z,9.23
2019-02-04T05:02:12.278Z,6.87
2019-02-04T05:04:53.095Z,8.80
2019-02-04T05:07:33.700Z,8.80
2019-02-04T05:10:14.438Z,9.00
2019-02-04T05:12:55.078Z,7.40
2019-02-04T05:15:35.707Z,13.85
2019-02-04T05:18:16.293Z,11.97
2019-02-04T05:20:57.034Z,7.47
2019-02-04T05:23:38.110Z,16.90
2019-02-04T05:26:18.605Z,13.25
2019-02-04T05:28:59.130Z,19.95
2019-02-04T05:31:39.781Z,18.20
2019-02-04T05:34:20.571Z,16.93
2019-02-04T05:37:01.178Z,17.60
2019-02-04T05:39:41.615Z,16.87
2019-02-04T05:42:22.448Z,18.73
2019-02-04T05:45:03.059Z,18.67
2019-02-04T05:47:43.715Z,21.30
2019-02-04T05:50:24.676Z,17.87
2019-02-04T05:53:05.023Z,21.77
2019-02-04T05:55:45.774Z,18.70
2019-02-04T05:58:26.443Z,18.47
2019-02-04T06:01:07.383Z,14.40
2019-02-04T06:03:47.988Z,14.13
2019-02-04T06:06:28.689Z,23.90
2019-02-04T06:09:09.447Z,19.17
2019-02-04T06:11:50.302Z,14.90
2019-02-04T06:14:30.953Z,21.17
2019-02-04T06:17:11.586Z,18.23
2019-02-04T06:19:52.251Z,17.57
2019-02-04T06:22:32.999Z,16.80
2019-02-04T06:25:13.746Z,17.77
2019-02-04T06:27:54.327Z,22.70
2019-02-04T06:30:34.777Z,18.27
2019-02-04T06:33:15.639Z,28.97
2019-02-04T06:35:56.544Z,20.37
2019-02-04T06:38:37.363Z,23.73
2019-02-04T06:41:18.314Z,20.60
2019-02-04T06:43:59.319Z,23.13
2019-02-04T06:46:39.690Z,19.67
2019-02-04T06:49:20.479Z,19.57
2019-02-04T06:52:01.210Z,21.07
2019-02-04T06:54:42.437Z,21.73
2019-02-04T06:57:22.736Z,14.90
2019-02-04T07:00:03.559Z,16.70
2019-02-04T07:02:44.193Z,18.03
2019-02-04T07:05:25.467Z,15.97
2019-02-04T07:08:06.408Z,18.10
2019-02-04T07:10:46.986Z,17.33
2019-02-04T07:13:27.631Z,19.70
2019-02-04T07:16:08.268Z,20.33
2019-02-04T07:18:48.971Z,16.20
2019-02-04T07:21:29.856Z,17.50
2019-02-04T07:24:10.287Z,21.60
2019-02-04T07:26:50.835Z,16.20
2019-02-04T07:29:31.522Z,15.30
2019-02-04T07:32:12.290Z,19.40
2019-02-04T07:34:53.068Z,20.00
2019-02-04T07:37:33.941Z,18.77
2019-02-04T07:40:14.586Z,16.77
2019-02-04T07:42:55.169Z,17.53
2019-02-04T07:45:35.982Z,18.57
2019-02-04T07:48:16.775Z,17.27
2019-02-04T07:50:57.342Z,15.97
2019-02-04T07:53:38.261Z,17.03
2019-02-04T07:56:19.000Z,15.13
2019-02-04T07:58:59.467Z,19.40
2019-02-04T08:01:40.468Z,19.60
2019-02-04T08:04:21.159Z,15.93
2019-02-04T08:07:02.468Z,16.10
2019-02-04T08:09:43.210Z,18.63
2019-02-04T08:12:23.790Z,18.10
2019-02-04T08:15:04.614Z,12.87
2019-02-04T08:17:45.375Z,15.10
2019-02-04T08:20:25.783Z,14.20
2019-02-04T08:23:06.302Z,17.37
2019-02-04T08:25:47.086Z,15.57
2019-02-04T08:28:27.790Z,15.77
2019-02-04T08:31:08.607Z,13.60
2019-02-04T08:33:49.461Z,13.57
2019-02-04T08:36:30.155Z,14.53
2019-02-04T08:39:10.666Z,15.23
2019-02-04T08:41:51.302Z,17.17
2019-02-04T08:44:32.051Z,15.20
2019-02-04T08:47:22.551Z,13.10
2019-02-04T08:49:58.460Z,18.27
2019-02-04T08:52:38.039Z,14.37
2019-02-04T08:55:18.737Z,11.23
2019-02-04T08:57:59.594Z,12.20
2019-02-04T09:00:40.089Z,10.70
2019-02-04T09:03:20.577Z,17.40
2019-02-04T09:06:01.671Z,13.03
2019-02-04T09:08:42.752Z,15.30
2019-02-04T09:11:23.531Z,22.17
2019-02-04T09:14:03.990Z,16.77
2019-02-04T09:16:44.686Z,16.83
2019-02-04T09:19:25.736Z,13.53
2019-02-04T09:22:06.339Z,15.13
2019-02-04T09:24:47.199Z,14.80
2019-02-04T09:27:27.958Z,17.50
2019-02-04T09:30:08.836Z,21.07
2019-02-04T09:32:49.690Z,15.77
2019-02-04T09:35:30.579Z,11.13
2019-02-04T09:38:10.930Z,12.73
2019-02-04T09:40:51.883Z,17.67
2019-02-04T09:43:32.307Z,17.57
2019-02-04T09:46:13.303Z,19.47
2019-02-04T09:48:53.652Z,18.93
2019-02-04T09:51:34.139Z,16.20
2019-02-04T09:54:14.643Z,16.17
2019-02-04T09:56:55.554Z,20.97
2019-02-04T09:59:36.182Z,14.87
2019-02-04T10:02:16.949Z,16.17
2019-02-04T10:04:57.631Z,12.10
2019-02-04T10:07:38.259Z,15.27
2019-02-04T10:10:18.999Z,16.13
2019-02-04T10:12:59.487Z,17.53
2019-02-04T10:15:40.293Z,13.30
2019-02-04T10:18:20.771Z,14.33
2019-02-04T10:21:01.400Z,14.60
2019-02-04T10:23:42.533Z,10.93
2019-02-04T10:26:22.927Z,15.70
2019-02-04T10:29:03.548Z,14.53
2019-02-04T10:31:44.409Z,16.43
2019-02-04T10:34:25.795Z,13.47
2019-02-04T10:37:07.357Z,17.30
2019-02-04T10:39:47.779Z,12.63
2019-02-04T10:42:28.470Z,15.40
2019-02-04T10:45:09.219Z,16.07
2019-02-04T10:47:49.690Z,12.37
2019-02-04T10:50:30.156Z,14.47
2019-02-04T10:53:10.956Z,15.37
2019-02-04T10:55:52.266Z,15.00
2019-02-04T10:58:32.750Z,14.53
2019-02-04T11:01:13.596Z,11.53
2019-02-04T11:03:54.321Z,10.40
2019-02-04T11:06:34.897Z,17.63
2019-02-04T11:09:16.211Z,11.07
2019-02-04T11:11:57.100Z,12.20
2019-02-04T11:14:37.860Z,11.70
2019-02-04T11:17:18.242Z,10.47
2019-02-04T11:19:58.704Z,14.60
2019-02-04T11:22:39.344Z,11.23
2019-02-04T11:25:19.780Z,9.10
2019-02-04T11:28:00.203Z,9.90
2019-02-04T11:30:41.067Z,8.97
2019-02-04T11:33:21.797Z,10.00
2019-02-04T11:36:02.687Z,12.77
2019-02-04T11:38:43.848Z,7.70
2019-02-04T11:41:24.369Z,8.80
2019-02-04T11:44:05.256Z,8.70
2019-02-04T11:46:45.819Z,10.37
2019-02-04T11:49:26.280Z,11.20
2019-02-04T11:52:06.650Z,15.90
2019-02-04T11:54:48.075Z,9.33
2019-02-04T11:57:29.008Z,11.80
2019-02-04T12:00:09.984Z,12.40
2019-02-04T12:02:50.841Z,11.70
2019-02-04T12:05:32.390Z,12.53
2019-02-04T12:08:12.755Z,13.10
2019-02-04T12:10:54.311Z,11.03
2019-02-04T12:13:35.041Z,10.63
2019-02-04T12:16:15.945Z,11.27
2019-02-04T12:18:57.591Z,14.07
2019-02-04T12:21:38.019Z,12.97
2019-02-04T12:24:18.835Z,10.03
2019-02-04T12:26:59.655Z,11.23
2019-02-04T12:29:40.211Z,9.87
2019-02-04T12:32:20.755Z,11.53
2019-02-04T12:35:02.256Z,9.70
2019-02-04T12:37:43.028Z,9.23
2019-02-04T12:40:23.744Z,10.93
2019-02-04T12:43:05.090Z,12.77
2019-02-04T12:45:45.877Z,12.60
2019-02-04T12:48:26.345Z,15.23
2019-02-04T12:51:07.391Z,10.83
2019-02-04T12:53:48.813Z,11.47
2019-02-04T12:56:29.619Z,12.23
2019-02-04T12:59:10.220Z,12.10
2019-02-04T13:01:50.843Z,10.13
2019-02-04T13:04:31.348Z,15.60
2019-02-04T13:07:13.098Z,11.47
2019-02-04T13:09:53.571Z,13.33
2019-02-04T13:12:34.118Z,10.63
2019-02-04T13:15:14.783Z,9.33
2019-02-04T13:17:55.379Z,13.73
2019-02-04T13:20:35.707Z,10.47
2019-02-04T13:23:16.476Z,12.40
2019-02-04T13:25:57.102Z,17.83
2019-02-04T13:28:37.633Z,12.40
2019-02-04T13:31:18.114Z,14.80
2019-02-04T13:33:59.055Z,13.40
2019-02-04T13:36:39.319Z,10.90
2019-02-04T13:39:20.033Z,12.33
2019-02-04T13:42:00.950Z,9.67
2019-02-04T13:44:41.518Z,11.30
2019-02-04T13:47:22.198Z,11.60
2019-02-04T13:50:02.824Z,12.90
2019-02-04T13:52:43.283Z,11.00
2019-02-04T13:55:23.871Z,15.70
2019-02-04T13:58:04.562Z,15.13
2019-02-04T14:00:45.466Z,12.87
2019-02-04T14:03:26.195Z,15.57
2019-02-04T14:06:06.888Z,12.23
2019-02-04T14:08:47.358Z,12.73
2019-02-04T14:11:28.030Z,11.10
2019-02-04T14:14:08.887Z,14.40
2019-02-04T14:16:49.358Z,11.33
2019-02-04T14:19:30.196Z,10.43
2019-02-04T14:22:10.753Z,13.60
2019-02-04T14:24:51.277Z,12.80
2019-02-04T14:27:31.710Z,9.57
2019-02-04T14:30:12.163Z,11.00
2019-02-04T14:32:52.943Z,14.60
2019-02-04T14:35:33.661Z,11.90
2019-02-04T14:38:14.754Z,15.80
2019-02-04T14:40:56.171Z,13.37
2019-02-04T14:43:37.235Z,12.40
2019-02-04T14:46:17.642Z,12.23
2019-02-04T14:48:58.128Z,14.63
2019-02-04T14:51:38.930Z,10.37
2019-02-04T14:54:20.015Z,12.13
2019-02-04T14:57:01.110Z,13.63
2019-02-04T14:59:42.044Z,13.50
2019-02-04T15:02:22.892Z,12.93
2019-02-04T15:05:03.294Z,15.43
2019-02-04T15:07:44.247Z,11.00
2019-02-04T15:10:24.884Z,10.40
2019-02-04T15:13:08.265Z,11.47
2019-02-04T15:15:48.771Z,11.47
2019-02-04T15:18:29.504Z,10.17
2019-02-04T15:21:10.195Z,12.47
2019-02-04T15:23:51.202Z,11.97
2019-02-04T15:26:32.064Z,11.10
2019-02-04T15:29:13.331Z,15.27
2019-02-04T15:31:54.058Z,10.47
2019-02-04T15:34:34.693Z,12.20
2019-02-04T15:37:15.342Z,13.70
2019-02-04T15:39:56.162Z,13.23
2019-02-04T15:42:36.947Z,12.63
2019-02-04T15:45:17.610Z,11.60
2019-02-04T15:47:58.475Z,18.10
2019-02-04T15:50:39.460Z,13.10
2019-02-04T15:53:20.409Z,10.70
2019-02-04T15:56:01.047Z,11.93
2019-02-04T15:58:41.747Z,10.60
2019-02-04T16:01:22.299Z,10.37
2019-02-04T16:04:03.394Z,10.43
2019-02-04T16:06:44.926Z,17.87
2019-02-04T16:09:25.673Z,16.67
2019-02-04T16:12:06.490Z,11.43
2019-02-04T16:14:48.112Z,10.63
2019-02-04T16:17:28.621Z,9.87
2019-02-04T16:20:09.427Z,10.00
2019-02-04T16:22:58.120Z,10.30
2019-02-04T16:25:32.711Z,8.97
2019-02-04T16:28:13.378Z,9.10
2019-02-04T16:30:54.164Z,14.17
2019-02-04T16:33:34.901Z,11.87
2019-02-04T16:36:15.821Z,17.40
2019-02-04T16:38:56.764Z,9.70
2019-02-04T16:41:38.202Z,9.03
2019-02-04T16:44:18.776Z,10.37
2019-02-04T16:46:59.956Z,11.53
2019-02-04T16:49:40.928Z,10.03
2019-02-04T16:52:21.742Z,11.10
2019-02-04T16:55:02.465Z,11.43
2019-02-04T16:57:43.042Z,9.37
2019-02-04T17:00:23.991Z,9.43
2019-02-04T17:03:05.171Z,9.50
2019-02-04T17:05:45.443Z,13.60
2019-02-04T17:08:26.094Z,13.60
2019-02-04T17:11:06.794Z,12.20
2019-02-04T17:13:47.419Z,12.53
2019-02-04T17:16:28.067Z,11.67
2019-02-04T17:19:08.590Z,11.60
2019-02-04T17:21:49.602Z,10.27
2019-02-04T17:24:30.231Z,8.57
2019-02-04T17:27:11.015Z,19.30
2019-02-04T17:29:51.766Z,13.47
2019-02-04T17:32:32.392Z,12.97
2019-02-04T17:35:13.232Z,12.70
2019-02-04T17:37:53.862Z,11.20
2019-02-04T17:40:34.659Z,12.23
2019-02-04T17:43:15.626Z,11.03
2019-02-04T17:45:56.150Z,13.60
2019-02-04T17:48:36.920Z,10.40
2019-02-04T17:51:17.707Z,9.30
2019-02-04T17:53:58.883Z,8.50
2019-02-04T17:56:39.628Z,11.47
2019-02-04T17:59:23.091Z,8.60
2019-02-04T18:02:03.304Z,9.73
2019-02-04T18:04:44.166Z,9.63
2019-02-04T18:07:24.823Z,9.53
2019-02-04T18:10:05.730Z,11.10
2019-02-04T18:12:46.704Z,6.50
2019-02-04T18:15:27.882Z,8.23
2019-02-04T18:18:08.930Z,7.40
2019-02-04T18:20:49.766Z,9.10
2019-02-04T18:23:45.560Z,6.50
2019-02-04T18:26:27.833Z,9.23
2019-02-04T18:29:17.331Z,9.90
2019-02-04T18:32:05.703Z,7.40
2019-02-04T18:34:53.691Z,8.40
2019-02-04T18:37:43.455Z,6.20
2019-02-04T18:40:31.459Z,7.13
2019-02-04T18:43:19.435Z,6.70
2019-02-04T18:46:07.523Z,7.37
2019-02-04T18:48:57.604Z,9.23
2019-02-04T18:51:45.668Z,7.33
2019-02-04T18:54:33.639Z,8.23
2019-02-04T18:57:21.935Z,7.50
2019-02-04T19:03:24.977Z,9.93
2019-02-04T19:06:13.051Z,9.50
2019-02-04T19:09:01.031Z,8.80
2019-02-04T19:11:49.691Z,6.97
2019-02-04T19:14:30.362Z,7.10
2019-02-04T19:17:11.074Z,6.70
2019-02-04T19:19:51.907Z,9.33
2019-02-04T19:22:32.463Z,8.27
2019-02-04T19:25:13.401Z,6.07
2019-02-04T19:27:54.031Z,6.57
2019-02-04T19:30:35.063Z,7.10
2019-02-04T19:33:15.961Z,6.10
2019-02-04T19:35:56.758Z,6.00
2019-02-04T19:38:37.493Z,10.83
2019-02-04T19:41:17.866Z,6.47
2019-02-04T19:43:58.777Z,12.23
2019-02-04T19:46:39.385Z,6.37
2019-02-04T19:49:20.342Z,7.00
2019-02-04T19:52:01.219Z,9.10
2019-02-04T19:54:42.510Z,7.40
2019-02-04T19:57:23.258Z,11.00
2019-02-04T20:00:03.809Z,7.90
2019-02-04T20:02:44.404Z,7.80
2019-02-04T20:05:25.067Z,7.87
2019-02-04T20:08:05.611Z,8.27
2019-02-04T20:10:46.203Z,5.87
2019-02-04T20:13:26.622Z,8.00
2019-02-04T20:16:07.363Z,6.90
2019-02-04T20:18:47.747Z,6.50
2019-02-04T20:21:28.142Z,12.40
2019-02-04T20:24:08.775Z,9.33
2019-02-04T20:26:49.457Z,7.83
2019-02-04T20:29:30.127Z,6.07
2019-02-04T20:32:10.476Z,6.47
2019-02-04T20:34:51.123Z,6.20
2019-02-04T20:37:31.709Z,5.60
2019-02-04T20:40:12.311Z,5.83
2019-02-04T20:42:53.022Z,5.43
2019-02-04T20:45:34.423Z,7.80
2019-02-04T20:48:15.450Z,7.10
2019-02-04T20:50:56.475Z,5.50
2019-02-04T20:53:39.115Z,5.83
2019-02-04T20:56:19.739Z,7.67
2019-02-04T20:59:00.294Z,8.70
2019-02-04T21:01:41.185Z,5.83
2019-02-04T21:04:22.404Z,4.97
2019-02-04T21:07:03.001Z,7.90
2019-02-04T21:09:44.466Z,8.10
2019-02-04T21:12:24.996Z,8.70
2019-02-04T21:15:05.499Z,5.00
2019-02-04T21:17:46.803Z,4.97
2019-02-04T21:20:27.738Z,6.83
2019-02-04T21:23:08.818Z,4.90
2019-02-04T21:25:49.325Z,5.07
2019-02-04T21:28:29.746Z,7.23
2019-02-04T21:31:11.325Z,5.00
2019-02-04T21:33:52.154Z,5.63
2019-02-04T21:36:33.355Z,5.67
2019-02-04T21:39:14.545Z,10.73
2019-02-04T21:41:54.970Z,5.43
2019-02-04T21:44:35.694Z,6.53
2019-02-04T21:47:16.447Z,5.77
2019-02-04T21:50:00.033Z,7.37
2019-02-04T21:52:39.662Z,7.60
2019-02-04T21:55:20.517Z,10.37
2019-02-04T21:58:01.192Z,5.00
2019-02-04T22:00:42.294Z,9.77
2019-02-04T22:03:22.990Z,6.17
2019-02-04T22:06:03.896Z,5.87
2019-02-04T22:08:44.679Z,7.43
2019-02-04T22:11:25.147Z,4.87
2019-02-04T22:14:05.827Z,4.63
2019-02-04T22:16:46.531Z,5.77
2019-02-04T22:19:27.305Z,5.00
2019-02-04T22:22:08.046Z,5.50
2019-02-04T22:24:48.799Z,6.63
2019-02-04T22:27:29.347Z,6.80
2019-02-04T22:30:10.070Z,7.90
2019-02-04T22:32:50.900Z,5.83
2019-02-04T22:35:31.557Z,5.20
2019-02-04T22:38:12.294Z,6.10
2019-02-04T22:40:52.943Z,9.07
2019-02-04T22:43:33.754Z,7.73
2019-02-04T22:46:15.078Z,5.50
2019-02-04T22:48:55.687Z,8.30
2019-02-04T22:51:36.452Z,11.07
2019-02-04T22:54:19.362Z,7.87
2019-02-04T22:56:59.859Z,5.70
2019-02-04T22:59:40.655Z,5.97
2019-02-04T23:02:22.146Z,6.17
2019-02-04T23:05:03.174Z,7.20
2019-02-04T23:07:43.840Z,10.17
2019-02-04T23:10:25.151Z,8.47
2019-02-04T23:13:05.672Z,9.17
2019-02-04T23:15:48.104Z,7.10
2019-02-04T23:18:28.899Z,7.03
2019-02-04T23:21:09.647Z,8.17
2019-02-04T23:23:50.599Z,7.03
2019-02-04T23:26:31.331Z,5.83
2019-02-04T23:29:12.059Z,8.00
2019-02-04T23:31:52.890Z,8.63
2019-02-04T23:34:33.654Z,7.93
2019-02-04T23:37:14.622Z,6.80
2019-02-04T23:39:55.190Z,7.53
2019-02-04T23:42:36.034Z,8.23
2019-02-04T23:45:16.706Z,11.50
2019-02-04T23:47:57.343Z,6.60
2019-02-04T23:50:38.133Z,7.13
2019-02-04T23:53:18.938Z,7.37
2019-02-04T23:55:59.739Z,8.00
2019-02-04T23:58:40.178Z,14.70
